Hlavní strana
METAR-TAF:

METAR-TAF

Letiště :

Tegucigalpa, Honduras

zeměpisná šířka: 14-03N, zeměpisná délka: 087-13W, výška: 994 m

Aktuální stav počasí

Zpráva byla vytvořena před 46 minutami, v 02:00 UTC
Bezvětří
Teplota 22°C
Vlhkost vzduchu 60%
Tlak 1018 hPa
Viditelnost 10 km a více
Skoro jasno ve výšce 2800 ft

METAR: MHTG 220200Z 00000KT 9999 FEW028 22/14 Q1018 A3006 NOSIG

Čas: 20:46 (02:46 UTC)

Předpověď počasí

Zpráva byla vytvořena před 4 hodinami a 6 minutami, v 22:40 UTC
Předpověď platná od 22 v 00 UTC do 22 v 24 UTC
Severovýchodní vítr 5 kt
Viditelnost 10 km a více
Polojasno ve výšce 2800 ft, Vertikální cumulus.
Skoro jasno ve výšce 3000 ft, Cumulonimbus.
Změna
od 22 v 01 UTC do 22 v 03 UTC
Skoro jasno ve výšce 2600 ft

TAF: MHTG 212240Z 2200/2224 04005KT 9999 SCT028TCU FEW030CB TX31/2219Z TN17/2212Z BECMG 2201/2203 FEW026

Stav a předpovědi počasí z více než 4 000 letišť (zprávy METAR a TAF).

Červené a žluté tečky na mapě představují dostupné meteorologické stanice.

Když kurzor umístíte na tečku, zobrazí se název stanice.

Pak kliknutím zobrazíte stav a předpověď počasí.

Chcete-li změnit mapu, kliknutím na zelené tlačítko se znaménkem +mapu přiblížíte, kliknutím na zelené tlačítko se znaménkem – mapu oddálíte a kliknutím na zelené šipky přejdete na sousední mapy.


METAR-TAF: